createdAt,value
2019-05-29T00:00:42.633Z,17.42
2019-05-29T00:01:45.441Z,17.33
2019-05-29T00:02:48.667Z,17.34
2019-05-29T00:03:52.666Z,17.29
2019-05-29T00:04:56.062Z,17.45
2019-05-29T00:05:58.650Z,17.60
2019-05-29T00:07:01.295Z,17.68
2019-05-29T00:08:04.105Z,17.83
2019-05-29T00:09:08.075Z,17.58
2019-05-29T00:10:12.517Z,17.38
2019-05-29T00:11:15.299Z,17.47
2019-05-29T00:12:20.107Z,17.78
2019-05-29T00:13:21.940Z,17.65
2019-05-29T00:14:27.364Z,17.48
2019-05-29T00:15:29.294Z,17.54
2019-05-29T00:16:32.454Z,17.46
2019-05-29T00:17:34.877Z,17.62
2019-05-29T00:18:37.076Z,17.50
2019-05-29T00:19:40.892Z,17.72
2019-05-29T00:20:43.293Z,17.81
2019-05-29T00:21:45.668Z,17.61
2019-05-29T00:22:47.856Z,17.83
2019-05-29T00:23:51.501Z,17.72
2019-05-29T00:24:54.407Z,17.93
2019-05-29T00:25:57.128Z,17.93
2019-05-29T00:26:59.424Z,18.08
2019-05-29T00:28:02.443Z,17.97
2019-05-29T00:29:05.689Z,18.02
2019-05-29T00:30:08.945Z,17.71
2019-05-29T00:31:12.184Z,17.67
2019-05-29T00:32:15.237Z,17.64
2019-05-29T00:33:18.856Z,17.64
2019-05-29T00:34:22.088Z,17.58
2019-05-29T00:35:24.562Z,17.74
2019-05-29T00:36:27.115Z,17.98
2019-05-29T00:37:29.729Z,17.95
2019-05-29T00:38:33.230Z,17.88
2019-05-29T00:39:36.271Z,17.67
2019-05-29T00:40:41.910Z,17.75
2019-05-29T00:41:44.554Z,17.71
2019-05-29T00:42:47.527Z,17.75
2019-05-29T00:43:50.136Z,17.53
2019-05-29T00:44:53.255Z,17.52
2019-05-29T00:45:55.017Z,17.39
2019-05-29T00:46:57.795Z,17.44
2019-05-29T00:48:00.762Z,17.46
2019-05-29T00:49:03.294Z,17.32
2019-05-29T00:50:08.011Z,17.37
2019-05-29T00:51:10.957Z,17.34
2019-05-29T00:52:12.861Z,17.35
2019-05-29T00:53:17.053Z,17.30
2019-05-29T00:54:19.918Z,17.39
2019-05-29T00:55:22.813Z,17.32
2019-05-29T00:56:25.430Z,17.26
2019-05-29T00:57:28.569Z,17.33
2019-05-29T00:58:31.209Z,17.28
2019-05-29T00:59:34.595Z,17.35
2019-05-29T01:00:37.335Z,17.45
2019-05-29T01:01:40.264Z,17.57
2019-05-29T01:02:42.814Z,17.82
2019-05-29T01:03:44.792Z,17.89
2019-05-29T01:04:49.274Z,17.90
2019-05-29T01:05:51.565Z,17.95
2019-05-29T01:06:53.379Z,18.00
2019-05-29T01:07:56.236Z,17.89
2019-05-29T01:08:58.765Z,18.00
2019-05-29T01:10:04.570Z,17.97
2019-05-29T01:11:06.900Z,17.82
2019-05-29T01:12:10.725Z,17.83
2019-05-29T01:13:13.644Z,17.73
2019-05-29T01:14:17.888Z,17.52
2019-05-29T01:15:21.555Z,17.58
2019-05-29T01:16:24.353Z,17.46
2019-05-29T01:17:26.821Z,17.39
2019-05-29T01:18:29.873Z,17.30
2019-05-29T01:19:32.154Z,17.15
2019-05-29T01:20:34.734Z,17.34
2019-05-29T01:21:39.466Z,17.23
2019-05-29T01:22:41.721Z,17.05
2019-05-29T01:23:44.001Z,16.84
2019-05-29T01:24:46.504Z,16.48
2019-05-29T01:25:49.275Z,16.62
2019-05-29T01:26:52.148Z,16.75
2019-05-29T01:27:53.951Z,16.81
2019-05-29T01:28:59.202Z,16.84
2019-05-29T01:30:05.935Z,16.70
2019-05-29T01:31:09.195Z,16.91
2019-05-29T01:32:13.354Z,17.03
2019-05-29T01:33:18.551Z,17.24
2019-05-29T01:34:20.303Z,17.31
2019-05-29T01:35:24.053Z,17.44
2019-05-29T01:36:27.268Z,17.45
2019-05-29T01:37:29.628Z,17.36
2019-05-29T01:38:32.267Z,17.19
2019-05-29T01:39:34.983Z,17.23
2019-05-29T01:40:37.397Z,17.06
2019-05-29T01:41:39.740Z,17.00
2019-05-29T01:42:41.923Z,17.03
2019-05-29T01:43:44.339Z,16.84
2019-05-29T01:44:47.122Z,16.92
2019-05-29T01:45:49.049Z,17.07
2019-05-29T01:46:51.722Z,17.00
2019-05-29T01:47:54.057Z,16.78
2019-05-29T01:48:56.023Z,17.16
2019-05-29T01:49:58.383Z,16.90
2019-05-29T01:51:01.278Z,16.92
2019-05-29T01:52:03.718Z,17.03
2019-05-29T01:53:06.294Z,16.95
2019-05-29T01:54:09.298Z,17.07
2019-05-29T01:55:12.480Z,17.06
2019-05-29T01:56:15.540Z,16.99
2019-05-29T01:57:18.174Z,17.01
2019-05-29T01:58:21.899Z,17.21
2019-05-29T01:59:26.260Z,17.19
2019-05-29T02:00:28.661Z,17.04
2019-05-29T02:01:30.939Z,17.09
2019-05-29T02:02:33.331Z,17.18
2019-05-29T02:03:35.200Z,17.14
2019-05-29T02:04:37.791Z,17.10
2019-05-29T02:05:40.980Z,17.13
2019-05-29T02:06:43.233Z,17.04
2019-05-29T02:07:45.918Z,17.17
2019-05-29T02:08:48.278Z,17.14
2019-05-29T02:09:52.060Z,17.06
2019-05-29T02:10:54.758Z,17.11
2019-05-29T02:11:57.404Z,17.18
2019-05-29T02:12:59.988Z,17.12
2019-05-29T02:14:03.221Z,17.14
2019-05-29T02:15:23.007Z,17.11
2019-05-29T02:16:11.917Z,17.16
2019-05-29T02:17:15.568Z,17.15
2019-05-29T02:18:18.801Z,17.32
2019-05-29T02:19:21.910Z,17.33
2019-05-29T02:20:27.168Z,17.07
2019-05-29T02:21:30.117Z,17.37
2019-05-29T02:22:31.931Z,17.24
2019-05-29T02:23:34.351Z,17.38
2019-05-29T02:24:36.458Z,17.35
2019-05-29T02:25:38.934Z,17.26
2019-05-29T02:26:41.911Z,17.31
2019-05-29T02:27:44.821Z,17.14
2019-05-29T02:28:47.196Z,17.21
2019-05-29T02:29:51.525Z,17.22
2019-05-29T02:30:53.947Z,17.22
2019-05-29T02:31:56.222Z,17.27
2019-05-29T02:32:58.738Z,17.42
2019-05-29T02:34:00.514Z,17.32
2019-05-29T02:35:05.244Z,17.48
2019-05-29T02:36:08.115Z,17.58
2019-05-29T02:37:10.787Z,17.37
2019-05-29T02:38:13.492Z,17.43
2019-05-29T02:39:16.011Z,17.36
2019-05-29T02:40:21.061Z,17.33
2019-05-29T02:41:26.181Z,17.36
2019-05-29T02:42:29.213Z,17.45
2019-05-29T02:43:32.820Z,17.35
2019-05-29T02:44:35.603Z,17.38
2019-05-29T02:45:53.934Z,17.43
2019-05-29T02:46:42.218Z,17.41
2019-05-29T02:47:45.164Z,17.50
2019-05-29T02:48:48.626Z,17.30
2019-05-29T02:49:50.280Z,17.35
2019-05-29T02:50:53.177Z,17.18
2019-05-29T02:51:55.861Z,17.28
2019-05-29T02:52:58.520Z,17.36
2019-05-29T02:54:01.130Z,17.42
2019-05-29T02:55:07.124Z,17.43
2019-05-29T02:56:09.608Z,17.31
2019-05-29T02:57:11.337Z,17.47
2019-05-29T02:58:14.239Z,17.53
2019-05-29T02:59:16.896Z,17.53
2019-05-29T03:00:25.803Z,17.47
2019-05-29T03:01:29.839Z,17.55
2019-05-29T03:02:33.990Z,17.53
2019-05-29T03:03:39.854Z,17.54
2019-05-29T03:04:40.932Z,17.44
2019-05-29T03:05:43.452Z,17.51
2019-05-29T03:06:47.373Z,17.40
2019-05-29T03:07:50.434Z,17.58
2019-05-29T03:08:53.374Z,17.65
2019-05-29T03:09:56.229Z,17.61
2019-05-29T03:10:59.154Z,17.69
2019-05-29T03:12:01.626Z,17.64
2019-05-29T03:13:03.706Z,17.47
2019-05-29T03:14:06.144Z,17.55
2019-05-29T03:15:08.414Z,17.51
2019-05-29T03:16:12.618Z,17.21
2019-05-29T03:17:15.205Z,17.24
2019-05-29T03:18:18.531Z,17.09
2019-05-29T03:19:20.819Z,16.86
2019-05-29T03:20:23.904Z,16.82
2019-05-29T03:21:28.230Z,16.79
2019-05-29T03:22:33.120Z,16.77
2019-05-29T03:23:36.427Z,16.80
2019-05-29T03:24:39.593Z,16.51
2019-05-29T03:25:42.772Z,16.54
2019-05-29T03:26:45.197Z,16.61
2019-05-29T03:27:48.227Z,16.43
2019-05-29T03:28:51.470Z,16.41
2019-05-29T03:29:53.952Z,16.72
2019-05-29T03:30:55.717Z,16.45
2019-05-29T03:31:58.134Z,16.53
2019-05-29T03:33:00.569Z,16.73
2019-05-29T03:34:02.670Z,16.55
2019-05-29T03:35:05.679Z,16.48
2019-05-29T03:36:07.365Z,16.39
2019-05-29T03:37:09.175Z,16.32
2019-05-29T03:38:11.680Z,16.39
2019-05-29T03:39:13.799Z,16.25
2019-05-29T03:40:16.448Z,16.18
2019-05-29T03:41:18.960Z,16.22
2019-05-29T03:42:21.322Z,16.26
2019-05-29T03:43:26.073Z,16.38
2019-05-29T03:44:28.779Z,16.30
2019-05-29T03:45:33.987Z,16.60
2019-05-29T03:46:42.712Z,16.48
2019-05-29T03:47:41.072Z,16.65
2019-05-29T03:48:43.631Z,16.65
2019-05-29T03:49:46.596Z,16.70
2019-05-29T03:50:48.909Z,16.81
2019-05-29T03:51:50.692Z,16.84
2019-05-29T03:52:54.426Z,17.02
2019-05-29T03:53:56.717Z,16.73
2019-05-29T03:54:58.482Z,16.56
2019-05-29T03:56:00.994Z,16.60
2019-05-29T03:57:03.675Z,16.30
2019-05-29T03:58:05.447Z,16.43
2019-05-29T03:59:07.769Z,16.56
2019-05-29T04:00:12.221Z,16.62
2019-05-29T04:01:14.863Z,16.62
2019-05-29T04:02:17.800Z,16.71
2019-05-29T04:03:20.530Z,16.56
2019-05-29T04:04:22.602Z,16.53
2019-05-29T04:05:26.710Z,16.75
2019-05-29T04:06:31.188Z,16.65
2019-05-29T04:07:35.529Z,16.57
2019-05-29T04:08:38.765Z,16.31
2019-05-29T04:09:41.330Z,16.34
2019-05-29T04:10:44.292Z,16.30
2019-05-29T04:11:46.608Z,16.38
2019-05-29T04:12:48.483Z,16.07
2019-05-29T04:13:51.333Z,16.17
2019-05-29T04:14:53.726Z,16.13
2019-05-29T04:15:59.814Z,15.99
2019-05-29T04:17:02.825Z,16.04
2019-05-29T04:18:05.457Z,15.71
2019-05-29T04:19:08.072Z,16.07
2019-05-29T04:20:12.019Z,15.98
2019-05-29T04:21:17.824Z,15.91
2019-05-29T04:22:25.734Z,15.81
2019-05-29T04:23:32.161Z,15.72
2019-05-29T04:24:38.362Z,15.53
2019-05-29T04:25:42.991Z,15.46
2019-05-29T04:26:49.773Z,15.32
2019-05-29T04:27:51.686Z,15.46
2019-05-29T04:28:54.479Z,15.58
2019-05-29T04:29:58.861Z,15.31
2019-05-29T04:31:01.498Z,15.71
2019-05-29T04:32:03.903Z,15.61
2019-05-29T04:33:06.650Z,15.23
2019-05-29T04:34:08.993Z,14.99
2019-05-29T04:35:11.807Z,15.00
2019-05-29T04:36:16.852Z,14.99
2019-05-29T04:37:19.044Z,15.07
2019-05-29T04:38:21.429Z,15.18
2019-05-29T04:39:23.110Z,15.05
2019-05-29T04:40:28.499Z,14.89
2019-05-29T04:41:32.370Z,14.92
2019-05-29T04:42:35.819Z,14.56
2019-05-29T04:43:40.086Z,14.53
2019-05-29T04:44:43.167Z,14.42
2019-05-29T04:45:44.899Z,14.22
2019-05-29T04:46:47.459Z,14.28
2019-05-29T04:47:51.662Z,14.33
2019-05-29T04:48:54.070Z,14.19
2019-05-29T04:49:56.615Z,14.44
2019-05-29T04:50:59.175Z,14.35
2019-05-29T04:52:01.576Z,14.27
2019-05-29T04:53:04.030Z,14.27
2019-05-29T04:54:06.363Z,14.27
2019-05-29T04:55:08.436Z,14.31
2019-05-29T04:56:11.294Z,14.67
2019-05-29T04:57:14.276Z,14.58
2019-05-29T04:58:17.864Z,14.65
2019-05-29T04:59:21.119Z,14.44
2019-05-29T05:00:23.989Z,14.70
2019-05-29T05:01:26.339Z,14.85
2019-05-29T05:02:28.981Z,14.76
2019-05-29T05:03:33.095Z,14.73
2019-05-29T05:04:37.310Z,14.84
2019-05-29T05:05:40.188Z,14.69
2019-05-29T05:06:42.339Z,14.82
2019-05-29T05:07:44.979Z,15.05
2019-05-29T05:08:49.371Z,14.78
2019-05-29T05:09:52.146Z,14.62
2019-05-29T05:10:54.577Z,14.58
2019-05-29T05:11:57.882Z,14.26
2019-05-29T05:13:00.630Z,14.10
2019-05-29T05:14:04.625Z,14.36
2019-05-29T05:15:08.782Z,14.18
2019-05-29T05:16:10.735Z,14.35
2019-05-29T05:17:25.696Z,14.61
2019-05-29T05:18:18.029Z,14.60
2019-05-29T05:19:20.857Z,14.60
2019-05-29T05:20:23.445Z,14.60
2019-05-29T05:21:26.309Z,14.32
2019-05-29T05:22:29.992Z,14.36
2019-05-29T05:23:32.532Z,14.23
2019-05-29T05:24:36.372Z,14.53
2019-05-29T05:25:40.853Z,14.65
2019-05-29T05:26:43.472Z,14.28
2019-05-29T05:27:45.507Z,14.21
2019-05-29T05:28:47.970Z,14.09
2019-05-29T05:29:53.027Z,14.05
2019-05-29T05:30:55.813Z,14.11
2019-05-29T05:32:00.367Z,13.92
2019-05-29T05:33:04.100Z,14.00
2019-05-29T05:34:07.069Z,13.96
2019-05-29T05:35:13.565Z,13.90
2019-05-29T05:36:15.098Z,13.92
2019-05-29T05:37:18.356Z,13.84
2019-05-29T05:38:20.759Z,13.97
2019-05-29T05:39:23.679Z,13.95
2019-05-29T05:40:27.349Z,13.76
2019-05-29T05:41:30.751Z,13.77
2019-05-29T05:42:37.104Z,13.90
2019-05-29T05:43:41.567Z,14.49
2019-05-29T05:44:44.100Z,14.25
2019-05-29T05:45:46.171Z,14.70
2019-05-29T05:46:49.878Z,14.63
2019-05-29T05:47:57.393Z,14.63
2019-05-29T05:48:57.001Z,14.99
2019-05-29T05:49:59.708Z,14.89
2019-05-29T05:51:02.492Z,14.52
2019-05-29T05:52:04.790Z,14.57
2019-05-29T05:53:08.443Z,14.37
2019-05-29T05:54:13.163Z,14.07
2019-05-29T05:55:17.398Z,13.83
2019-05-29T05:56:20.146Z,13.76
2019-05-29T05:57:23.295Z,13.72
2019-05-29T05:58:25.049Z,13.63
2019-05-29T05:59:27.843Z,13.71
2019-05-29T06:00:33.961Z,13.54
2019-05-29T06:01:36.162Z,13.63
2019-05-29T06:02:40.245Z,13.78
2019-05-29T06:03:42.677Z,13.94
2019-05-29T06:04:45.099Z,14.23
2019-05-29T06:05:48.668Z,13.98
2019-05-29T06:06:50.793Z,13.80
2019-05-29T06:07:53.231Z,13.73
2019-05-29T06:08:55.759Z,13.73
2019-05-29T06:10:00.129Z,13.72
2019-05-29T06:11:03.150Z,13.47
2019-05-29T06:12:05.432Z,13.41
2019-05-29T06:13:09.713Z,13.54
2019-05-29T06:14:12.543Z,13.55
2019-05-29T06:15:15.047Z,13.76
2019-05-29T06:16:18.013Z,13.58
2019-05-29T06:17:21.952Z,13.63
2019-05-29T06:18:24.537Z,13.67
2019-05-29T06:19:27.403Z,13.73
2019-05-29T06:20:30.717Z,13.83
2019-05-29T06:21:35.346Z,14.06
2019-05-29T06:22:38.942Z,14.04
2019-05-29T06:23:43.942Z,14.30
2019-05-29T06:24:46.405Z,14.47
2019-05-29T06:25:49.472Z,14.56
2019-05-29T06:26:52.521Z,14.36
2019-05-29T06:27:55.140Z,14.08
2019-05-29T06:28:58.796Z,14.09
2019-05-29T06:30:03.435Z,14.39
2019-05-29T06:31:06.042Z,14.13
2019-05-29T06:32:09.820Z,14.00
2019-05-29T06:33:12.452Z,13.99
2019-05-29T06:34:14.197Z,13.93
2019-05-29T06:35:16.785Z,14.09
2019-05-29T06:36:19.216Z,13.90
2019-05-29T06:37:21.008Z,14.06
2019-05-29T06:38:23.697Z,13.86
2019-05-29T06:39:27.899Z,14.10
2019-05-29T06:40:38.240Z,13.92
2019-05-29T06:41:42.049Z,14.03
2019-05-29T06:42:44.405Z,14.12
2019-05-29T06:43:47.511Z,14.19
2019-05-29T06:44:51.682Z,13.85
2019-05-29T06:45:54.651Z,13.63
2019-05-29T06:46:57.330Z,13.66
2019-05-29T06:48:02.824Z,13.57
2019-05-29T06:49:05.130Z,13.66
2019-05-29T06:50:07.928Z,13.54
2019-05-29T06:51:10.828Z,13.38
2019-05-29T06:52:13.558Z,13.40
2019-05-29T06:53:16.639Z,13.23
2019-05-29T06:54:19.469Z,13.68
2019-05-29T06:55:21.215Z,13.83
2019-05-29T06:56:23.914Z,13.57
2019-05-29T06:57:26.442Z,13.73
2019-05-29T06:58:29.073Z,13.85
2019-05-29T06:59:31.644Z,13.60
2019-05-29T07:00:38.155Z,13.66
2019-05-29T07:01:41.740Z,13.61
2019-05-29T07:02:44.883Z,14.03
2019-05-29T07:03:48.276Z,13.75
2019-05-29T07:04:51.833Z,13.48
2019-05-29T07:05:54.203Z,13.53
2019-05-29T07:06:56.638Z,13.63
2019-05-29T07:08:13.378Z,13.76
2019-05-29T07:09:05.480Z,13.72
2019-05-29T07:10:09.575Z,14.05
2019-05-29T07:11:14.914Z,13.98
2019-05-29T07:12:17.889Z,13.90
2019-05-29T07:13:20.620Z,13.69
2019-05-29T07:14:23.823Z,13.78
2019-05-29T07:15:27.179Z,13.90
2019-05-29T07:16:44.023Z,13.56
2019-05-29T07:17:36.451Z,13.90
2019-05-29T07:19:20.485Z,13.48
2019-05-29T07:19:57.965Z,13.57
2019-05-29T07:20:52.248Z,13.66
2019-05-29T07:21:54.467Z,13.75
2019-05-29T07:22:57.011Z,13.87
2019-05-29T07:23:59.389Z,13.52
2019-05-29T07:25:05.887Z,13.30
2019-05-29T07:26:08.194Z,13.35
2019-05-29T07:27:13.330Z,13.61
2019-05-29T07:28:16.061Z,13.59
2019-05-29T07:29:18.999Z,13.57
2019-05-29T07:30:24.252Z,13.13
2019-05-29T07:31:26.183Z,12.89
2019-05-29T07:32:29.109Z,13.14
2019-05-29T07:33:35.260Z,13.48
2019-05-29T07:34:51.136Z,13.61
2019-05-29T07:35:43.901Z,13.64
2019-05-29T07:36:48.223Z,13.65
2019-05-29T07:37:50.891Z,13.87
2019-05-29T07:39:02.571Z,13.64
2019-05-29T07:39:58.304Z,13.39
2019-05-29T07:41:06.131Z,13.68
2019-05-29T07:42:09.019Z,13.71
2019-05-29T07:43:11.462Z,13.38
2019-05-29T07:44:14.447Z,13.54
2019-05-29T07:45:18.711Z,13.60
2019-05-29T07:46:22.327Z,14.26
2019-05-29T07:47:26.117Z,14.33
2019-05-29T07:48:28.550Z,13.74
2019-05-29T07:49:39.269Z,13.98
2019-05-29T07:50:37.959Z,13.81
2019-05-29T07:51:40.719Z,13.70
2019-05-29T07:52:45.358Z,13.90
2019-05-29T07:53:48.778Z,13.59
2019-05-29T07:54:51.687Z,13.38
2019-05-29T07:55:54.240Z,13.53
2019-05-29T07:56:57.071Z,13.68
2019-05-29T07:57:59.365Z,13.63
2019-05-29T07:59:03.840Z,13.77
2019-05-29T08:00:07.533Z,13.77
2019-05-29T08:01:13.598Z,13.80
2019-05-29T08:02:15.291Z,13.80
2019-05-29T08:03:18.507Z,14.08
2019-05-29T08:04:21.142Z,14.07
2019-05-29T08:05:24.702Z,14.12
2019-05-29T08:06:26.833Z,13.81
2019-05-29T08:07:31.161Z,13.59
2019-05-29T08:08:34.418Z,13.39
2019-05-29T08:09:37.256Z,13.22
2019-05-29T08:10:40.147Z,13.36
2019-05-29T08:11:45.554Z,13.64
2019-05-29T08:12:53.223Z,13.24
2019-05-29T08:13:54.175Z,13.44
2019-05-29T08:14:57.217Z,13.05
2019-05-29T08:16:03.158Z,12.84
2019-05-29T08:17:03.985Z,13.01
2019-05-29T08:18:06.641Z,12.77
2019-05-29T08:19:09.564Z,12.78
2019-05-29T08:20:12.552Z,12.90
2019-05-29T08:21:14.968Z,13.08
2019-05-29T08:22:33.332Z,13.43
2019-05-29T08:23:22.453Z,13.36
2019-05-29T08:24:25.013Z,13.56
2019-05-29T08:25:28.605Z,13.41
2019-05-29T08:26:31.348Z,13.44
2019-05-29T08:27:34.814Z,13.34
2019-05-29T08:28:37.264Z,13.27
2019-05-29T08:29:40.722Z,13.28
2019-05-29T08:30:48.530Z,13.40
2019-05-29T08:31:51.006Z,13.41
2019-05-29T08:32:54.499Z,13.94
2019-05-29T08:33:56.229Z,13.71
2019-05-29T08:34:58.728Z,14.03
2019-05-29T08:36:01.504Z,13.44
2019-05-29T08:37:07.428Z,13.28
2019-05-29T08:38:10.525Z,13.14
2019-05-29T08:39:33.022Z,13.05
2019-05-29T08:40:20.469Z,13.27
2019-05-29T08:41:22.967Z,13.42
2019-05-29T08:42:24.828Z,13.87
2019-05-29T08:43:28.608Z,14.02
2019-05-29T08:44:31.300Z,14.27
2019-05-29T08:45:33.430Z,14.17
2019-05-29T08:46:36.417Z,13.98
2019-05-29T08:47:38.940Z,13.82
2019-05-29T08:48:41.812Z,14.15
2019-05-29T08:49:48.052Z,14.55
2019-05-29T08:50:49.962Z,13.91
2019-05-29T08:52:10.520Z,14.22
2019-05-29T08:53:02.435Z,14.50
2019-05-29T08:54:22.633Z,14.03
2019-05-29T08:55:08.962Z,14.01
2019-05-29T08:56:11.458Z,13.81
2019-05-29T08:57:16.140Z,13.67
2019-05-29T08:58:18.241Z,14.02
2019-05-29T08:59:21.244Z,13.87
2019-05-29T09:00:24.476Z,14.19
2019-05-29T09:01:27.782Z,14.28
2019-05-29T09:02:32.271Z,14.09
2019-05-29T09:03:35.195Z,14.43
2019-05-29T09:04:38.770Z,14.70
2019-05-29T09:05:42.954Z,14.60
2019-05-29T09:06:46.826Z,14.23
2019-05-29T09:07:50.388Z,13.94
2019-05-29T09:08:55.391Z,14.05
2019-05-29T09:09:58.309Z,14.48
2019-05-29T09:11:03.994Z,14.26
2019-05-29T09:12:07.170Z,14.27
2019-05-29T09:13:09.834Z,14.32
2019-05-29T09:14:12.536Z,14.34
2019-05-29T09:15:21.122Z,14.33
2019-05-29T09:16:20.939Z,14.68
2019-05-29T09:17:27.517Z,14.38
2019-05-29T09:18:30.349Z,14.74
2019-05-29T09:19:32.872Z,14.50
2019-05-29T09:21:00.132Z,14.47
2019-05-29T09:21:41.135Z,14.43
2019-05-29T09:22:43.658Z,13.77
2019-05-29T09:23:46.406Z,14.02
2019-05-29T09:24:50.010Z,14.48
2019-05-29T09:25:52.698Z,14.43
2019-05-29T09:26:55.583Z,14.44
2019-05-29T09:27:59.963Z,14.79
2019-05-29T09:29:03.653Z,14.28
2019-05-29T09:30:06.737Z,13.90
2019-05-29T09:31:10.245Z,13.85
2019-05-29T09:32:13.462Z,14.04
2019-05-29T09:33:18.717Z,14.08
2019-05-29T09:34:22.678Z,14.08
2019-05-29T09:35:25.680Z,13.81
2019-05-29T09:36:28.520Z,14.25
2019-05-29T09:37:30.494Z,14.12
2019-05-29T09:38:33.267Z,14.39
2019-05-29T09:39:35.950Z,14.42
2019-05-29T09:40:38.421Z,14.03
2019-05-29T09:41:40.926Z,14.18
2019-05-29T09:42:42.747Z,14.23
2019-05-29T09:43:58.408Z,14.10
2019-05-29T09:44:50.242Z,14.10
2019-05-29T09:45:52.941Z,14.34
2019-05-29T09:46:55.858Z,14.41
2019-05-29T09:48:00.251Z,14.32
2019-05-29T09:49:03.307Z,14.48
2019-05-29T09:50:06.963Z,14.58
2019-05-29T09:51:20.673Z,14.46
2019-05-29T09:52:14.013Z,14.53
2019-05-29T09:53:17.196Z,14.66
2019-05-29T09:54:19.616Z,14.76
2019-05-29T09:55:24.274Z,14.98
2019-05-29T09:56:27.910Z,15.10
2019-05-29T09:57:29.819Z,14.79
2019-05-29T09:58:32.442Z,15.07
2019-05-29T09:59:35.575Z,14.97
2019-05-29T10:00:37.710Z,15.01
2019-05-29T10:01:40.096Z,15.33
2019-05-29T10:02:42.991Z,15.16
2019-05-29T10:03:46.342Z,14.89
2019-05-29T10:04:49.012Z,14.82
2019-05-29T10:05:51.439Z,15.01
2019-05-29T10:06:54.811Z,15.07
2019-05-29T10:07:59.645Z,14.66
2019-05-29T10:09:04.604Z,14.37
2019-05-29T10:10:10.373Z,14.40
2019-05-29T10:11:13.486Z,14.79
2019-05-29T10:12:16.234Z,14.96
2019-05-29T10:13:18.628Z,15.12
2019-05-29T10:14:22.180Z,15.13
2019-05-29T10:15:24.732Z,15.33
2019-05-29T10:16:27.225Z,15.42
2019-05-29T10:17:29.595Z,15.54
2019-05-29T10:18:32.917Z,15.13
2019-05-29T10:19:36.798Z,14.86
2019-05-29T10:20:39.591Z,14.80
2019-05-29T10:21:41.641Z,15.31
2019-05-29T10:22:44.510Z,15.34
2019-05-29T10:23:47.767Z,14.75
2019-05-29T10:24:50.238Z,14.90
2019-05-29T10:25:52.685Z,14.62
2019-05-29T10:26:57.508Z,14.48
2019-05-29T10:28:00.721Z,14.54
2019-05-29T10:29:08.734Z,14.61
2019-05-29T10:30:09.372Z,15.15
2019-05-29T10:31:12.145Z,15.39
2019-05-29T10:32:14.484Z,15.29
2019-05-29T10:33:17.286Z,15.51
2019-05-29T10:34:22.977Z,15.27
2019-05-29T10:35:27.158Z,15.39
2019-05-29T10:36:29.817Z,15.02
2019-05-29T10:37:32.426Z,14.67
2019-05-29T10:38:34.912Z,14.83
2019-05-29T10:39:36.835Z,14.85
2019-05-29T10:40:39.531Z,14.61
2019-05-29T10:41:42.681Z,14.76
2019-05-29T10:42:45.202Z,14.76
2019-05-29T10:43:47.527Z,14.84
2019-05-29T10:44:51.265Z,14.82
2019-05-29T10:45:54.319Z,14.69
2019-05-29T10:46:57.237Z,14.74
2019-05-29T10:47:59.587Z,14.58
2019-05-29T10:49:04.692Z,14.96
2019-05-29T10:50:10.907Z,14.97
2019-05-29T10:51:14.033Z,14.80
2019-05-29T10:52:17.545Z,14.72
2019-05-29T10:53:20.169Z,14.97
2019-05-29T10:54:23.197Z,14.77
2019-05-29T10:55:25.775Z,14.68
2019-05-29T10:56:30.576Z,14.43
2019-05-29T10:57:33.030Z,14.84
2019-05-29T10:58:47.914Z,14.62
2019-05-29T10:59:39.368Z,14.56
2019-05-29T11:00:41.663Z,14.82
2019-05-29T11:01:45.144Z,14.70
2019-05-29T11:02:49.904Z,14.42
2019-05-29T11:03:53.902Z,14.91
2019-05-29T11:04:59.291Z,15.09
2019-05-29T11:06:01.847Z,14.60
2019-05-29T11:07:03.883Z,14.28
2019-05-29T11:08:06.317Z,14.20
2019-05-29T11:09:08.782Z,14.34
2019-05-29T11:10:13.577Z,14.13
2019-05-29T11:11:16.374Z,14.46
2019-05-29T11:12:20.315Z,14.92
2019-05-29T11:13:24.358Z,15.06
2019-05-29T11:14:27.180Z,15.14
2019-05-29T11:15:30.794Z,14.86
2019-05-29T11:16:33.819Z,14.87
2019-05-29T11:17:36.129Z,15.28
2019-05-29T11:18:39.133Z,15.52
2019-05-29T11:19:41.716Z,15.89
2019-05-29T11:20:44.464Z,15.65
2019-05-29T11:21:48.141Z,15.40
2019-05-29T11:22:51.687Z,15.32
2019-05-29T11:23:54.418Z,15.10
2019-05-29T11:25:00.196Z,14.70
2019-05-29T11:26:02.106Z,14.84
2019-05-29T11:27:06.904Z,15.15
2019-05-29T11:28:09.109Z,15.19
2019-05-29T11:29:11.710Z,15.49
2019-05-29T11:30:14.869Z,15.29
2019-05-29T11:31:17.578Z,14.67
2019-05-29T11:32:21.412Z,14.76
2019-05-29T11:33:23.097Z,14.65
2019-05-29T11:34:26.491Z,14.35
2019-05-29T11:35:29.467Z,14.55
2019-05-29T11:36:33.286Z,14.66
2019-05-29T11:37:35.798Z,14.50
2019-05-29T11:38:40.148Z,14.96
2019-05-29T11:39:44.149Z,15.23
2019-05-29T11:40:46.239Z,15.17
2019-05-29T11:41:48.764Z,15.28
2019-05-29T11:42:50.866Z,14.89
2019-05-29T11:43:53.148Z,14.72
2019-05-29T11:44:56.746Z,14.59
2019-05-29T11:45:59.575Z,14.14
2019-05-29T11:47:02.904Z,14.36
2019-05-29T11:48:06.068Z,14.42
2019-05-29T11:49:08.061Z,14.16
2019-05-29T11:50:19.207Z,14.00
2019-05-29T11:51:17.147Z,14.09
2019-05-29T11:52:24.782Z,14.05
2019-05-29T11:53:24.963Z,13.98
2019-05-29T11:54:27.330Z,14.38
2019-05-29T11:55:29.732Z,14.18
2019-05-29T11:56:36.165Z,14.04
2019-05-29T11:57:39.815Z,13.88
2019-05-29T11:58:44.933Z,14.10
2019-05-29T11:59:48.406Z,13.98
2019-05-29T12:00:51.299Z,13.74
2019-05-29T12:01:55.436Z,13.68
2019-05-29T12:03:01.745Z,13.61
2019-05-29T12:04:23.151Z,13.64
2019-05-29T12:05:09.996Z,13.87
2019-05-29T12:06:14.221Z,14.32
2019-05-29T12:07:16.930Z,13.79
2019-05-29T12:08:19.521Z,13.73
2019-05-29T12:09:32.617Z,13.35
2019-05-29T12:10:29.329Z,13.41
2019-05-29T12:11:32.187Z,13.20
2019-05-29T12:12:37.989Z,13.19
2019-05-29T12:13:40.284Z,13.29
2019-05-29T12:14:58.684Z,13.29
2019-05-29T12:15:48.501Z,13.25
2019-05-29T12:16:51.715Z,13.13
2019-05-29T12:18:08.909Z,13.11
2019-05-29T12:18:59.820Z,12.92
2019-05-29T12:20:26.405Z,13.32
2019-05-29T12:21:10.225Z,13.54
2019-05-29T12:22:12.724Z,13.93
2019-05-29T12:23:25.620Z,14.22
2019-05-29T12:24:20.290Z,13.89
2019-05-29T12:25:22.726Z,14.30
2019-05-29T12:26:25.272Z,13.81
2019-05-29T12:27:27.124Z,13.43
2019-05-29T12:28:29.941Z,13.92
2019-05-29T12:29:32.665Z,14.00
2019-05-29T12:30:37.656Z,13.80
2019-05-29T12:31:41.418Z,13.70
2019-05-29T12:32:44.309Z,13.65
2019-05-29T12:33:46.663Z,13.51
2019-05-29T12:34:53.738Z,13.57
2019-05-29T12:35:52.985Z,13.44
2019-05-29T12:36:57.283Z,13.64
2019-05-29T12:38:01.462Z,13.65
2019-05-29T12:39:06.090Z,13.76
2019-05-29T12:40:10.365Z,13.98
2019-05-29T12:41:14.550Z,13.75
2019-05-29T12:42:16.992Z,13.56
2019-05-29T12:43:27.083Z,13.29
2019-05-29T12:44:25.748Z,13.26
2019-05-29T12:45:28.605Z,13.20
2019-05-29T12:46:33.274Z,13.77
2019-05-29T12:47:35.746Z,13.27
2019-05-29T12:48:39.480Z,13.08
2019-05-29T12:49:41.841Z,13.02
2019-05-29T12:50:45.915Z,13.12
2019-05-29T12:51:51.161Z,13.06
2019-05-29T12:52:55.802Z,13.19
2019-05-29T12:53:58.356Z,13.60
2019-05-29T12:55:02.295Z,13.74
2019-05-29T12:56:06.381Z,13.85
2019-05-29T12:57:08.872Z,14.04
2019-05-29T12:58:13.320Z,14.16
2019-05-29T12:59:18.102Z,13.90
2019-05-29T13:00:22.663Z,13.57
2019-05-29T13:01:24.591Z,13.41
2019-05-29T13:02:27.550Z,13.29
2019-05-29T13:03:30.278Z,13.52
2019-05-29T13:04:46.987Z,13.90
2019-05-29T13:05:37.663Z,13.69
2019-05-29T13:06:40.531Z,13.23
2019-05-29T13:07:43.209Z,13.32
2019-05-29T13:08:45.653Z,13.22
2019-05-29T13:09:48.406Z,13.18
2019-05-29T13:10:51.424Z,13.33
2019-05-29T13:11:56.466Z,13.26
2019-05-29T13:13:04.861Z,13.01
2019-05-29T13:14:04.683Z,13.06
2019-05-29T13:15:10.498Z,13.02
2019-05-29T13:16:13.504Z,13.32
2019-05-29T13:17:16.403Z,13.44
2019-05-29T13:18:19.234Z,13.97
2019-05-29T13:19:21.627Z,14.15
2019-05-29T13:20:25.059Z,14.61
2019-05-29T13:21:28.877Z,14.49
2019-05-29T13:22:32.191Z,14.02
2019-05-29T13:23:44.862Z,14.38
2019-05-29T13:24:39.566Z,13.86
2019-05-29T13:25:41.955Z,14.32
2019-05-29T13:26:44.615Z,14.13
2019-05-29T13:27:47.318Z,14.45
2019-05-29T13:28:50.055Z,14.19
2019-05-29T13:29:56.492Z,14.48
2019-05-29T13:30:57.705Z,14.84
2019-05-29T13:32:02.577Z,14.84
2019-05-29T13:33:07.365Z,14.28
2019-05-29T13:34:09.948Z,14.45
2019-05-29T13:35:13.368Z,14.19